sensor_id;sensor_type;location;lat;lon;timestamp;pressure;altitude;pressure_sealevel;temperature;humidity
65276;BME280;51875;49.994;14.052;2022-12-07T00:00:46;98105.91;;;4.05;100.00
65276;BME280;51875;49.994;14.052;2022-12-07T00:02:01;98109.38;;;4.00;100.00
65276;BME280;51875;49.994;14.052;2022-12-07T00:03:17;98104.16;;;4.01;100.00
65276;BME280;51875;49.994;14.052;2022-12-07T00:04:33;98111.09;;;3.98;100.00
65276;BME280;51875;49.994;14.052;2022-12-07T00:05:48;98108.56;;;3.93;100.00
65276;BME280;51875;49.994;14.052;2022-12-07T00:07:04;98103.31;;;4.04;100.00
65276;BME280;51875;49.994;14.052;2022-12-07T00:08:19;98107.63;;;4.00;100.00
65276;BME280;51875;49.994;14.052;2022-12-07T00:09:35;98108.44;;;4.07;100.00
65276;BME280;51875;49.994;14.052;2022-12-07T00:10:51;98102.44;;;4.03;100.00
65276;BME280;51875;49.994;14.052;2022-12-07T00:12:06;98102.44;;;4.03;100.00
65276;BME280;51875;49.994;14.052;2022-12-07T00:13:22;98111.09;;;3.99;100.00
65276;BME280;51875;49.994;14.052;2022-12-07T00:14:37;98103.31;;;4.02;100.00
65276;BME280;51875;49.994;14.052;2022-12-07T00:15:53;98111.97;;;3.98;100.00
65276;BME280;51875;49.994;14.052;2022-12-07T00:17:08;98102.44;;;4.06;100.00
65276;BME280;51875;49.994;14.052;2022-12-07T00:18:24;98105.00;;;4.09;100.00
65276;BME280;51875;49.994;14.052;2022-12-07T00:19:40;98106.78;;;4.00;100.00
65276;BME280;51875;49.994;14.052;2022-12-07T00:21:12;98107.59;;;4.03;100.00
65276;BME280;51875;49.994;14.052;2022-12-07T00:22:28;98097.22;;;4.08;100.00
65276;BME280;51875;49.994;14.052;2022-12-07T00:23:45;98092.06;;;4.06;100.00
65276;BME280;51875;49.994;14.052;2022-12-07T00:25:00;98097.22;;;4.09;100.00
65276;BME280;51875;49.994;14.052;2022-12-07T00:26:20;98091.22;;;4.03;100.00
65276;BME280;51875;49.994;14.052;2022-12-07T00:27:36;98093.81;;;4.01;100.00
65276;BME280;51875;49.994;14.052;2022-12-07T00:28:54;98089.50;;;4.02;100.00
65276;BME280;51875;49.994;14.052;2022-12-07T00:30:10;98093.81;;;4.01;100.00
65276;BME280;51875;49.994;14.052;2022-12-07T00:31:28;98089.56;;;3.92;100.00
65276;BME280;51875;49.994;14.052;2022-12-07T00:32:44;98090.25;;;4.15;100.00
65276;BME280;51875;49.994;14.052;2022-12-07T00:34:00;98092.75;;;4.27;100.00
65276;BME280;51875;49.994;14.052;2022-12-07T00:35:16;98097.19;;;4.11;100.00
65276;BME280;51875;49.994;14.052;2022-12-07T00:36:31;98093.72;;;4.14;100.00
65276;BME280;51875;49.994;14.052;2022-12-07T00:37:47;98092.06;;;4.06;100.00
65276;BME280;51875;49.994;14.052;2022-12-07T00:39:03;98085.94;;;4.14;100.00
65276;BME280;51875;49.994;14.052;2022-12-07T00:40:19;98088.34;;;4.38;100.00
65276;BME280;51875;49.994;14.052;2022-12-07T00:41:34;98087.41;;;4.49;100.00
65276;BME280;51875;49.994;14.052;2022-12-07T00:42:50;98087.44;;;4.43;100.00
65276;BME280;51875;49.994;14.052;2022-12-07T00:44:06;98086.50;;;4.53;100.00
65276;BME280;51875;49.994;14.052;2022-12-07T00:45:21;98090.13;;;4.30;100.00
65276;BME280;51875;49.994;14.052;2022-12-07T00:46:37;98085.66;;;4.49;100.00
65276;BME280;51875;49.994;14.052;2022-12-07T00:47:52;98090.06;;;4.40;100.00
65276;BME280;51875;49.994;14.052;2022-12-07T00:49:08;98084.88;;;4.38;100.00
65276;BME280;51875;49.994;14.052;2022-12-07T00:50:24;98088.53;;;4.15;100.00
65276;BME280;51875;49.994;14.052;2022-12-07T00:51:39;98092.91;;;4.07;100.00
65276;BME280;51875;49.994;14.052;2022-12-07T00:52:55;98086.69;;;4.28;100.00
65276;BME280;51875;49.994;14.052;2022-12-07T00:54:11;98086.69;;;4.28;100.00
65276;BME280;51875;49.994;14.052;2022-12-07T00:55:26;98091.78;;;4.41;100.00
65276;BME280;51875;49.994;14.052;2022-12-07T00:56:42;98083.25;;;4.26;100.00
65276;BME280;51875;49.994;14.052;2022-12-07T00:57:58;98091.97;;;4.16;100.00
65276;BME280;51875;49.994;14.052;2022-12-07T00:59:13;98086.72;;;4.25;100.00
65276;BME280;51875;49.994;14.052;2022-12-07T01:00:30;98084.97;;;4.27;100.00
65276;BME280;51875;49.994;14.052;2022-12-07T01:01:46;98086.84;;;4.09;100.00
65276;BME280;51875;49.994;14.052;2022-12-07T01:03:02;98082.34;;;4.30;100.00
65276;BME280;51875;49.994;14.052;2022-12-07T01:04:18;98082.19;;;4.52;100.00
65276;BME280;51875;49.994;14.052;2022-12-07T01:05:34;98074.28;;;4.64;100.00
65276;BME280;51875;49.994;14.052;2022-12-07T01:06:50;98080.44;;;4.52;100.00
65276;BME280;51875;49.994;14.052;2022-12-07T01:08:06;98084.00;;;4.42;100.00
65276;BME280;51875;49.994;14.052;2022-12-07T01:09:22;98088.31;;;4.43;100.00
65276;BME280;51875;49.994;14.052;2022-12-07T01:10:37;98083.31;;;4.18;100.00
65276;BME280;51875;49.994;14.052;2022-12-07T01:11:53;98086.72;;;4.25;100.00
65276;BME280;51875;49.994;14.052;2022-12-07T01:13:09;98088.38;;;4.34;100.00
65276;BME280;51875;49.994;14.052;2022-12-07T01:14:24;98088.69;;;3.95;100.00
65276;BME280;51875;49.994;14.052;2022-12-07T01:15:42;98089.25;;;4.34;100.00
65276;BME280;51875;49.994;14.052;2022-12-07T01:16:58;98092.03;;;4.09;100.00
65276;BME280;51875;49.994;14.052;2022-12-07T01:18:13;98095.63;;;3.87;100.00
65276;BME280;51875;49.994;14.052;2022-12-07T01:19:29;98092.00;;;4.14;100.00
65276;BME280;51875;49.994;14.052;2022-12-07T01:20:45;98085.81;;;4.31;100.00
65276;BME280;51875;49.994;14.052;2022-12-07T01:22:00;98082.25;;;4.43;100.00
65276;BME280;51875;49.994;14.052;2022-12-07T01:23:16;98087.53;;;4.32;100.00
65276;BME280;51875;49.994;14.052;2022-12-07T01:24:31;98083.31;;;4.18;100.00
65276;BME280;51875;49.994;14.052;2022-12-07T01:26:03;98085.03;;;4.21;100.00
65276;BME280;51875;49.994;14.052;2022-12-07T01:27:19;98086.63;;;4.36;100.00
65276;BME280;51875;49.994;14.052;2022-12-07T01:28:35;98080.81;;;4.09;100.00
65276;BME280;51875;49.994;14.052;2022-12-07T01:29:51;98078.88;;;4.33;100.00
65276;BME280;51875;49.994;14.052;2022-12-07T01:31:13;98079.06;;;4.13;100.00
65276;BME280;51875;49.994;14.052;2022-12-07T01:32:30;98083.47;;;4.00;100.00
65276;BME280;51875;49.994;14.052;2022-12-07T01:33:48;98088.59;;;4.04;100.00
65276;BME280;51875;49.994;14.052;2022-12-07T01:35:04;98085.03;;;4.18;100.00
65276;BME280;51875;49.994;14.052;2022-12-07T01:36:31;98081.56;;;4.25;100.00
65276;BME280;51875;49.994;14.052;2022-12-07T01:37:47;98074.63;;;4.27;100.00
65276;BME280;51875;49.994;14.052;2022-12-07T01:39:05;98084.84;;;4.43;100.00
65276;BME280;51875;49.994;14.052;2022-12-07T01:40:20;98082.28;;;4.40;100.00
65276;BME280;51875;49.994;14.052;2022-12-07T01:41:39;98081.50;;;4.28;100.00
65276;BME280;51875;49.994;14.052;2022-12-07T01:42:55;98080.06;;;3.93;100.00
65276;BME280;51875;49.994;14.052;2022-12-07T01:45:41;98076.22;;;4.41;100.00
65276;BME280;51875;49.994;14.052;2022-12-07T01:47:03;98079.72;;;4.35;100.00
65276;BME280;51875;49.994;14.052;2022-12-07T01:48:23;98077.34;;;4.13;100.00
65276;BME280;51875;49.994;14.052;2022-12-07T01:49:45;98077.50;;;3.88;100.00
65276;BME280;51875;49.994;14.052;2022-12-07T01:51:09;98078.19;;;4.15;100.00
65276;BME280;51875;49.994;14.052;2022-12-07T01:52:29;98073.00;;;4.14;100.00
65276;BME280;51875;49.994;14.052;2022-12-07T01:53:45;98081.75;;;3.95;100.00
65276;BME280;51875;49.994;14.052;2022-12-07T01:55:04;98079.88;;;4.18;100.00
65276;BME280;51875;49.994;14.052;2022-12-07T01:56:24;98077.38;;;4.08;100.00
65276;BME280;51875;49.994;14.052;2022-12-07T01:57:46;98072.31;;;3.90;100.00
65276;BME280;51875;49.994;14.052;2022-12-07T01:59:03;98072.25;;;3.99;100.00
65276;BME280;51875;49.994;14.052;2022-12-07T02:00:19;98074.13;;;3.77;100.00
65276;BME280;51875;49.994;14.052;2022-12-07T02:01:35;98077.63;;;3.70;100.00
65276;BME280;51875;49.994;14.052;2022-12-07T02:02:52;98068.91;;;3.86;100.00
65276;BME280;51875;49.994;14.052;2022-12-07T02:04:10;98068.81;;;3.99;100.00
65276;BME280;51875;49.994;14.052;2022-12-07T02:05:26;98063.50;;;4.11;100.00
65276;BME280;51875;49.994;14.052;2022-12-07T02:06:43;98068.69;;;4.13;100.00
65276;BME280;51875;49.994;14.052;2022-12-07T02:08:00;98065.41;;;3.92;100.00
65276;BME280;51875;49.994;14.052;2022-12-07T02:09:16;98073.31;;;3.70;100.00
65276;BME280;51875;49.994;14.052;2022-12-07T02:10:32;98060.13;;;4.01;100.00
65276;BME280;51875;49.994;14.052;2022-12-07T02:11:48;98066.97;;;4.10;100.00
65276;BME280;51875;49.994;14.052;2022-12-07T02:13:16;98063.63;;;3.99;100.00
65276;BME280;51875;49.994;14.052;2022-12-07T02:14:34;98058.28;;;4.16;100.00
65276;BME280;51875;49.994;14.052;2022-12-07T02:17:21;98064.31;;;4.18;100.00
65276;BME280;51875;49.994;14.052;2022-12-07T02:22:27;98063.78;;;3.77;100.00
65276;BME280;51875;49.994;14.052;2022-12-07T02:24:14;98063.66;;;3.94;100.00
65276;BME280;51875;49.994;14.052;2022-12-07T02:27:28;98059.28;;;3.99;100.00
65276;BME280;51875;49.994;14.052;2022-12-07T02:30:28;98062.00;;;3.84;100.00
65276;BME280;51875;49.994;14.052;2022-12-07T02:33:15;98060.25;;;3.86;100.00
65276;BME280;51875;49.994;14.052;2022-12-07T02:34:44;98061.97;;;3.88;100.00
65276;BME280;51875;49.994;14.052;2022-12-07T02:36:14;98057.63;;;3.92;100.00
65276;BME280;51875;49.994;14.052;2022-12-07T02:38:06;98068.19;;;3.58;100.00
65276;BME280;51875;49.994;14.052;2022-12-07T02:39:34;98062.91;;;3.76;100.00
65276;BME280;51875;49.994;14.052;2022-12-07T02:40:57;98068.06;;;3.76;100.00
65276;BME280;51875;49.994;14.052;2022-12-07T02:42:23;98065.66;;;3.50;100.00
65276;BME280;51875;49.994;14.052;2022-12-07T02:43:45;98052.53;;;3.76;100.00
65276;BME280;51875;49.994;14.052;2022-12-07T02:45:02;98051.81;;;3.56;100.00
65276;BME280;51875;49.994;14.052;2022-12-07T02:46:32;98062.13;;;3.62;100.00
65276;BME280;51875;49.994;14.052;2022-12-07T02:47:51;98058.78;;;3.50;100.00
65276;BME280;51875;49.994;14.052;2022-12-07T02:49:09;98066.53;;;3.49;100.00
65276;BME280;51875;49.994;14.052;2022-12-07T02:50:26;98060.47;;;3.50;100.00
65276;BME280;51875;49.994;14.052;2022-12-07T02:51:44;98064.84;;;3.40;100.00
65276;BME280;51875;49.994;14.052;2022-12-07T02:53:01;98065.56;;;3.65;100.00
65276;BME280;51875;49.994;14.052;2022-12-07T02:54:18;98063.84;;;3.66;100.00
65276;BME280;51875;49.994;14.052;2022-12-07T02:55:39;98053.50;;;3.60;100.00
65276;BME280;51875;49.994;14.052;2022-12-07T02:58:37;98056.22;;;3.39;100.00
65276;BME280;51875;49.994;14.052;2022-12-07T03:00:11;98052.75;;;3.42;100.00
65276;BME280;51875;49.994;14.052;2022-12-07T03:01:39;98052.66;;;3.61;100.00
65276;BME280;51875;49.994;14.052;2022-12-07T03:03:04;98050.84;;;3.74;100.00
65276;BME280;51875;49.994;14.052;2022-12-07T03:04:43;98053.34;;;3.86;100.00
65276;BME280;51875;49.994;14.052;2022-12-07T03:06:14;98053.59;;;3.46;100.00
65276;BME280;51875;49.994;14.052;2022-12-07T03:08:00;98050.97;;;3.53;100.00
65276;BME280;51875;49.994;14.052;2022-12-07T03:11:04;98043.16;;;3.61;100.00
65276;BME280;51875;49.994;14.052;2022-12-07T03:12:29;98044.97;;;3.47;100.00
65276;BME280;51875;49.994;14.052;2022-12-07T03:15:21;98032.69;;;3.75;100.00
65276;BME280;51875;49.994;14.052;2022-12-07T03:17:00;98022.25;;;3.88;100.00
65276;BME280;51875;49.994;14.052;2022-12-07T03:18:20;98029.22;;;3.79;100.00
65276;BME280;51875;49.994;14.052;2022-12-07T03:19:37;98036.19;;;3.70;100.00
65276;BME280;51875;49.994;14.052;2022-12-07T03:20:57;98037.22;;;3.41;100.00
65276;BME280;51875;49.994;14.052;2022-12-07T03:22:14;98042.47;;;3.36;100.00
65276;BME280;51875;49.994;14.052;2022-12-07T03:23:33;98042.50;;;3.20;100.00
65276;BME280;51875;49.994;14.052;2022-12-07T03:24:53;98044.16;;;3.37;100.00
65276;BME280;51875;49.994;14.052;2022-12-07T03:26:12;98039.81;;;3.44;100.00
65276;BME280;51875;49.994;14.052;2022-12-07T03:27:58;98030.38;;;3.33;100.00
65276;BME280;51875;49.994;14.052;2022-12-07T03:29:24;98037.25;;;3.39;100.00
65276;BME280;51875;49.994;14.052;2022-12-07T03:31:13;98042.34;;;3.48;100.00
65276;BME280;51875;49.994;14.052;2022-12-07T03:34:21;98033.81;;;3.37;100.00
65276;BME280;51875;49.994;14.052;2022-12-07T03:35:51;98032.88;;;3.49;100.00
65276;BME280;51875;49.994;14.052;2022-12-07T03:37:43;98029.56;;;3.25;100.00
65276;BME280;51875;49.994;14.052;2022-12-07T03:39:22;98033.00;;;3.29;100.00
65276;BME280;51875;49.994;14.052;2022-12-07T03:41:03;98023.41;;;3.46;100.00
65276;BME280;51875;49.994;14.052;2022-12-07T03:42:20;98018.22;;;3.49;100.00
65276;BME280;51875;49.994;14.052;2022-12-07T03:43:36;98016.47;;;3.51;100.00
65276;BME280;51875;49.994;14.052;2022-12-07T03:44:53;98020.78;;;3.52;100.00
65276;BME280;51875;49.994;14.052;2022-12-07T03:46:19;98025.19;;;3.35;100.00
65276;BME280;51875;49.994;14.052;2022-12-07T03:48:22;98022.53;;;3.47;100.00
65276;BME280;51875;49.994;14.052;2022-12-07T03:50:44;98026.81;;;3.48;100.00
65276;BME280;51875;49.994;14.052;2022-12-07T03:53:44;98027.69;;;3.47;100.00
65276;BME280;51875;49.994;14.052;2022-12-07T03:56:36;98019.13;;;3.41;100.00
65276;BME280;51875;49.994;14.052;2022-12-07T03:57:56;98022.56;;;3.43;100.00
65276;BME280;51875;49.994;14.052;2022-12-07T03:59:14;98016.44;;;3.53;100.00
65276;BME280;51875;49.994;14.052;2022-12-07T04:00:30;98018.28;;;3.35;100.00
65276;BME280;51875;49.994;14.052;2022-12-07T04:01:53;98008.59;;;3.65;100.00
65276;BME280;51875;49.994;14.052;2022-12-07T04:03:10;98009.47;;;3.66;100.00
65276;BME280;51875;49.994;14.052;2022-12-07T04:04:26;98008.59;;;3.72;100.00
65276;BME280;51875;49.994;14.052;2022-12-07T04:05:43;98010.41;;;3.54;100.00
65276;BME280;51875;49.994;14.052;2022-12-07T04:06:59;98012.03;;;3.69;100.00
65276;BME280;51875;49.994;14.052;2022-12-07T04:08:15;98012.78;;;3.84;100.00
65276;BME280;51875;49.994;14.052;2022-12-07T04:09:30;98012.06;;;3.66;100.00
65276;BME280;51875;49.994;14.052;2022-12-07T04:10:46;98018.16;;;3.56;100.00
65276;BME280;51875;49.994;14.052;2022-12-07T04:12:01;98013.09;;;3.40;100.00
65276;BME280;51875;49.994;14.052;2022-12-07T04:13:17;98018.28;;;3.37;100.00
65276;BME280;51875;49.994;14.052;2022-12-07T04:14:33;98014.81;;;3.41;100.00
65276;BME280;51875;49.994;14.052;2022-12-07T04:15:48;98012.22;;;3.41;100.00
65276;BME280;51875;49.994;14.052;2022-12-07T04:17:04;98005.31;;;3.45;100.00
65276;BME280;51875;49.994;14.052;2022-12-07T04:18:20;98005.31;;;3.43;100.00
65276;BME280;51875;49.994;14.052;2022-12-07T04:19:35;98003.63;;;3.33;100.00
65276;BME280;51875;49.994;14.052;2022-12-07T04:20:51;98007.19;;;3.11;100.00
65276;BME280;51875;49.994;14.052;2022-12-07T04:22:06;98000.34;;;3.04;100.00
65276;BME280;51875;49.994;14.052;2022-12-07T04:23:22;98004.66;;;3.04;100.00
65276;BME280;51875;49.994;14.052;2022-12-07T04:24:38;97998.56;;;3.17;100.00
65276;BME280;51875;49.994;14.052;2022-12-07T04:25:53;98007.31;;;2.94;100.00
65276;BME280;51875;49.994;14.052;2022-12-07T04:27:09;97998.69;;;2.85;100.00
65276;BME280;51875;49.994;14.052;2022-12-07T04:28:25;98003.06;;;2.73;100.00
65276;BME280;51875;49.994;14.052;2022-12-07T04:29:40;98003.00;;;2.86;100.00
65276;BME280;51875;49.994;14.052;2022-12-07T04:30:56;98004.78;;;2.74;100.00
65276;BME280;51875;49.994;14.052;2022-12-07T04:32:12;98003.00;;;2.92;100.00
65276;BME280;51875;49.994;14.052;2022-12-07T04:33:27;98003.00;;;2.87;100.00
65276;BME280;51875;49.994;14.052;2022-12-07T04:34:43;98003.94;;;2.61;100.00
65276;BME280;51875;49.994;14.052;2022-12-07T04:35:58;98002.28;;;2.48;100.00
65276;BME280;51875;49.994;14.052;2022-12-07T04:37:14;98001.34;;;2.64;100.00
65276;BME280;51875;49.994;14.052;2022-12-07T04:38:30;98006.47;;;2.88;100.00
65276;BME280;51875;49.994;14.052;2022-12-07T04:39:45;98005.69;;;2.64;100.00
65276;BME280;51875;49.994;14.052;2022-12-07T04:41:07;98003.09;;;2.62;100.00
65276;BME280;51875;49.994;14.052;2022-12-07T04:42:23;98003.94;;;2.71;100.00
65276;BME280;51875;49.994;14.052;2022-12-07T04:43:39;98001.31;;;2.80;100.00
65276;BME280;51875;49.994;14.052;2022-12-07T04:44:54;98007.34;;;2.82;100.00
65276;BME280;51875;49.994;14.052;2022-12-07T04:46:10;98007.28;;;2.96;100.00
65276;BME280;51875;49.994;14.052;2022-12-07T04:47:26;98010.81;;;2.75;100.00
65276;BME280;51875;49.994;14.052;2022-12-07T04:48:41;98003.03;;;2.78;100.00
65276;BME280;51875;49.994;14.052;2022-12-07T04:49:57;98003.81;;;3.00;100.00
65276;BME280;51875;49.994;14.052;2022-12-07T04:51:13;98002.25;;;2.62;100.00
65276;BME280;51875;49.994;14.052;2022-12-07T04:52:30;98008.19;;;2.87;100.00
65276;BME280;51875;49.994;14.052;2022-12-07T04:53:45;97999.56;;;2.79;100.00
65276;BME280;51875;49.994;14.052;2022-12-07T04:55:01;97999.59;;;2.76;100.00
65276;BME280;51875;49.994;14.052;2022-12-07T04:56:17;97997.00;;;2.76;100.00
65276;BME280;51875;49.994;14.052;2022-12-07T04:57:33;98000.53;;;2.56;100.00
65276;BME280;51875;49.994;14.052;2022-12-07T04:58:50;98001.44;;;2.38;100.00
65276;BME280;51875;49.994;14.052;2022-12-07T05:00:07;98004.88;;;2.45;100.00
65276;BME280;51875;49.994;14.052;2022-12-07T05:01:23;98002.28;;;2.42;100.00
65276;BME280;51875;49.994;14.052;2022-12-07T05:02:38;98005.69;;;2.50;100.00
65276;BME280;51875;49.994;14.052;2022-12-07T05:03:54;98006.59;;;2.38;100.00
65276;BME280;51875;49.994;14.052;2022-12-07T05:05:10;98006.56;;;2.58;100.00
65276;BME280;51875;49.994;14.052;2022-12-07T05:06:26;98007.41;;;2.62;100.00
65276;BME280;51875;49.994;14.052;2022-12-07T05:07:42;98014.28;;;2.67;100.00
65276;BME280;51875;49.994;14.052;2022-12-07T05:08:57;98016.03;;;2.58;100.00
65276;BME280;51875;49.994;14.052;2022-12-07T05:10:13;98009.16;;;2.44;100.00
65276;BME280;51875;49.994;14.052;2022-12-07T05:11:28;98013.47;;;2.44;100.00
65276;BME280;51875;49.994;14.052;2022-12-07T05:12:53;98011.78;;;2.35;100.00
65276;BME280;51875;49.994;14.052;2022-12-07T05:14:19;98015.22;;;2.29;100.00
65276;BME280;51875;49.994;14.052;2022-12-07T05:15:35;98005.75;;;2.30;100.00
65276;BME280;51875;49.994;14.052;2022-12-07T05:16:51;98015.22;;;2.35;100.00
65276;BME280;51875;49.994;14.052;2022-12-07T05:18:09;98005.78;;;2.28;100.00
65276;BME280;51875;49.994;14.052;2022-12-07T05:19:25;98005.78;;;2.23;100.00
65276;BME280;51875;49.994;14.052;2022-12-07T05:20:42;98011.75;;;2.43;100.00
65276;BME280;51875;49.994;14.052;2022-12-07T05:21:57;98014.34;;;2.50;100.00
65276;BME280;51875;49.994;14.052;2022-12-07T05:23:13;98010.06;;;2.29;100.00
65276;BME280;51875;49.994;14.052;2022-12-07T05:24:29;98011.81;;;2.05;100.00
65276;BME280;51875;49.994;14.052;2022-12-07T05:25:46;98012.66;;;2.24;100.00
65276;BME280;51875;49.994;14.052;2022-12-07T05:27:01;98007.50;;;2.15;100.00
65276;BME280;51875;49.994;14.052;2022-12-07T05:28:17;98004.88;;;2.45;100.00
65276;BME280;51875;49.994;14.052;2022-12-07T05:29:32;98010.97;;;2.17;100.00
65276;BME280;51875;49.994;14.052;2022-12-07T05:30:48;98014.31;;;2.44;100.00
65276;BME280;51875;49.994;14.052;2022-12-07T05:32:03;98007.47;;;2.38;100.00
65276;BME280;51875;49.994;14.052;2022-12-07T05:33:19;98005.78;;;1.86;100.00
65276;BME280;51875;49.994;14.052;2022-12-07T05:34:35;98003.16;;;2.37;100.00
65276;BME280;51875;49.994;14.052;2022-12-07T05:35:51;98008.31;;;2.44;100.00
65276;BME280;51875;49.994;14.052;2022-12-07T05:37:06;98004.03;;;2.21;100.00
65276;BME280;51875;49.994;14.052;2022-12-07T05:38:22;98008.34;;;2.19;100.00
65276;BME280;51875;49.994;14.052;2022-12-07T05:39:37;98002.31;;;2.24;100.00
65276;BME280;51875;49.994;14.052;2022-12-07T05:41:00;98001.50;;;1.83;100.00
65276;BME280;51875;49.994;14.052;2022-12-07T05:42:16;98008.38;;;2.03;100.00
65276;BME280;51875;49.994;14.052;2022-12-07T05:43:32;98004.09;;;1.96;100.00
65276;BME280;51875;49.994;14.052;2022-12-07T05:44:48;98000.59;;;2.19;100.00
65276;BME280;51875;49.994;14.052;2022-12-07T05:46:04;97997.16;;;2.07;100.00
65276;BME280;51875;49.994;14.052;2022-12-07T05:47:20;98006.66;;;1.94;100.00
65276;BME280;51875;49.994;14.052;2022-12-07T05:48:35;97997.19;;;1.86;100.00
65276;BME280;51875;49.994;14.052;2022-12-07T05:49:52;97997.19;;;1.90;100.00
65276;BME280;51875;49.994;14.052;2022-12-07T05:51:07;98004.06;;;2.02;100.00
65276;BME280;51875;49.994;14.052;2022-12-07T05:52:23;98009.22;;;1.85;100.00
65276;BME280;51875;49.994;14.052;2022-12-07T05:53:38;98001.50;;;1.68;100.00
65276;BME280;51875;49.994;14.052;2022-12-07T05:54:54;98006.66;;;1.79;100.00
65276;BME280;51875;49.994;14.052;2022-12-07T05:56:10;98007.50;;;2.00;100.00
65276;BME280;51875;49.994;14.052;2022-12-07T05:57:25;98006.66;;;1.94;100.00
65276;BME280;51875;49.994;14.052;2022-12-07T05:58:41;98004.91;;;1.64;100.00
65276;BME280;51875;49.994;14.052;2022-12-07T06:00:15;98003.19;;;1.81;100.00
65276;BME280;51875;49.994;14.052;2022-12-07T06:01:31;98000.63;;;1.75;100.00
65276;BME280;51875;49.994;14.052;2022-12-07T06:02:46;98003.19;;;1.41;100.00
65276;BME280;51875;49.994;14.052;2022-12-07T06:04:02;97994.59;;;1.51;100.00
65276;BME280;51875;49.994;14.052;2022-12-07T06:05:18;97995.47;;;1.92;100.00
65276;BME280;51875;49.994;14.052;2022-12-07T06:06:33;97996.34;;;2.04;100.00
65276;BME280;51875;49.994;14.052;2022-12-07T06:07:49;97991.16;;;2.05;100.00
65276;BME280;51875;49.994;14.052;2022-12-07T06:09:05;97990.28;;;2.02;100.00
65276;BME280;51875;49.994;14.052;2022-12-07T06:10:21;97991.19;;;1.71;100.00
65276;BME280;51875;49.994;14.052;2022-12-07T06:11:36;97987.72;;;1.67;100.00
65276;BME280;51875;49.994;14.052;2022-12-07T06:13:10;97986.84;;;1.87;100.00
65276;BME280;51875;49.994;14.052;2022-12-07T06:14:26;97985.13;;;1.74;100.00
65276;BME280;51875;49.994;14.052;2022-12-07T06:15:42;97993.75;;;1.63;100.00
65276;BME280;51875;49.994;14.052;2022-12-07T06:16:58;97998.06;;;1.57;100.00
65276;BME280;51875;49.994;14.052;2022-12-07T06:18:14;97990.31;;;1.71;100.00
65276;BME280;51875;49.994;14.052;2022-12-07T06:19:30;97997.19;;;1.73;100.00
65276;BME280;51875;49.994;14.052;2022-12-07T06:20:45;97994.59;;;1.48;100.00
65276;BME280;51875;49.994;14.052;2022-12-07T06:22:02;97991.19;;;1.83;100.00
65276;BME280;51875;49.994;14.052;2022-12-07T06:23:19;97995.47;;;2.03;100.00
65276;BME280;51875;49.994;14.052;2022-12-07T06:24:35;97993.75;;;1.62;100.00
65276;BME280;51875;49.994;14.052;2022-12-07T06:25:51;97997.19;;;1.50;100.00
65276;BME280;51875;49.994;14.052;2022-12-07T06:27:06;97996.31;;;1.59;100.00
65276;BME280;51875;49.994;14.052;2022-12-07T06:28:22;97996.31;;;1.51;100.00
65276;BME280;51875;49.994;14.052;2022-12-07T06:29:38;97992.00;;;2.00;100.00
65276;BME280;51875;49.994;14.052;2022-12-07T06:31:00;97989.44;;;1.98;100.00
65276;BME280;51875;49.994;14.052;2022-12-07T06:32:16;97992.00;;;2.00;100.00
65276;BME280;51875;49.994;14.052;2022-12-07T06:33:32;97992.91;;;1.88;100.00
65276;BME280;51875;49.994;14.052;2022-12-07T06:34:47;97994.59;;;1.79;100.00
65276;BME280;51875;49.994;14.052;2022-12-07T06:36:03;98002.38;;;1.86;100.00
65276;BME280;51875;49.994;14.052;2022-12-07T06:37:19;97998.06;;;1.57;100.00
65276;BME280;51875;49.994;14.052;2022-12-07T06:38:35;97998.03;;;1.60;100.00
65276;BME280;51875;49.994;14.052;2022-12-07T06:39:50;97992.88;;;1.78;100.00
65276;BME280;51875;49.994;14.052;2022-12-07T06:41:06;97993.75;;;1.79;100.00
65276;BME280;51875;49.994;14.052;2022-12-07T06:42:22;97996.34;;;1.71;100.00
65276;BME280;51875;49.994;14.052;2022-12-07T06:43:37;98000.66;;;1.85;100.00
65276;BME280;51875;49.994;14.052;2022-12-07T06:44:53;97998.06;;;1.88;100.00
65276;BME280;51875;49.994;14.052;2022-12-07T06:46:09;98001.50;;;1.74;100.00
65276;BME280;51875;49.994;14.052;2022-12-07T06:47:25;98006.66;;;1.83;100.00
65276;BME280;51875;49.994;14.052;2022-12-07T06:48:41;98002.34;;;1.58;100.00
65276;BME280;51875;49.994;14.052;2022-12-07T06:49:57;98005.75;;;1.38;100.00
65276;BME280;51875;49.994;14.052;2022-12-07T06:51:13;98010.09;;;1.47;100.00
65276;BME280;51875;49.994;14.052;2022-12-07T06:52:30;98003.19;;;1.47;100.00
65276;BME280;51875;49.994;14.052;2022-12-07T06:53:45;98011.78;;;1.52;100.00
65276;BME280;51875;49.994;14.052;2022-12-07T06:55:01;97998.91;;;1.66;100.00
65276;BME280;51875;49.994;14.052;2022-12-07T06:56:16;98001.50;;;1.62;100.00
65276;BME280;51875;49.994;14.052;2022-12-07T06:57:32;97996.34;;;1.63;100.00
65276;BME280;51875;49.994;14.052;2022-12-07T06:58:48;97995.47;;;1.57;100.00
65276;BME280;51875;49.994;14.052;2022-12-07T07:00:04;97999.78;;;1.62;100.00
65276;BME280;51875;49.994;14.052;2022-12-07T07:01:20;98007.47;;;1.40;100.00
65276;BME280;51875;49.994;14.052;2022-12-07T07:02:36;98000.59;;;1.38;100.00
65276;BME280;51875;49.994;14.052;2022-12-07T07:03:52;98003.22;;;1.60;100.00
65276;BME280;51875;49.994;14.052;2022-12-07T07:05:08;98000.63;;;1.44;100.00
65276;BME280;51875;49.994;14.052;2022-12-07T07:06:23;98004.91;;;1.42;100.00
65276;BME280;51875;49.994;14.052;2022-12-07T07:07:39;98006.63;;;1.49;100.00
65276;BME280;51875;49.994;14.052;2022-12-07T07:08:54;98006.63;;;1.46;100.00
65276;BME280;51875;49.994;14.052;2022-12-07T07:10:10;97997.19;;;1.53;100.00
65276;BME280;51875;49.994;14.052;2022-12-07T07:11:26;97998.91;;;1.63;100.00
65276;BME280;51875;49.994;14.052;2022-12-07T07:12:41;97997.19;;;1.54;100.00